sensor_id;sensor_type;location;lat;lon;timestamp;P1;durP1;ratioP1;P2;durP2;ratioP2
75272;SDS011;63869;52.344;16.928;2023-03-23T00:00:57;23.83;;;10.32;;
75272;SDS011;63869;52.344;16.928;2023-03-23T00:03:23;21.35;;;9.95;;
75272;SDS011;63869;52.344;16.928;2023-03-23T00:05:51;24.30;;;10.38;;
75272;SDS011;63869;52.344;16.928;2023-03-23T00:08:20;19.48;;;10.05;;
75272;SDS011;63869;52.344;16.928;2023-03-23T00:10:49;21.20;;;10.23;;
75272;SDS011;63869;52.344;16.928;2023-03-23T00:13:21;23.07;;;10.73;;
75272;SDS011;63869;52.344;16.928;2023-03-23T00:15:47;21.30;;;10.32;;
75272;SDS011;63869;52.344;16.928;2023-03-23T00:18:14;21.02;;;9.38;;
75272;SDS011;63869;52.344;16.928;2023-03-23T00:20:52;19.23;;;10.07;;
75272;SDS011;63869;52.344;16.928;2023-03-23T00:23:20;21.00;;;9.70;;
75272;SDS011;63869;52.344;16.928;2023-03-23T00:25:49;22.98;;;10.25;;
75272;SDS011;63869;52.344;16.928;2023-03-23T00:28:18;23.05;;;9.95;;
75272;SDS011;63869;52.344;16.928;2023-03-23T00:30:53;23.25;;;10.38;;
75272;SDS011;63869;52.344;16.928;2023-03-23T00:35:49;19.63;;;10.27;;
75272;SDS011;63869;52.344;16.928;2023-03-23T00:38:17;24.92;;;10.07;;
75272;SDS011;63869;52.344;16.928;2023-03-23T00:40:44;21.63;;;9.70;;
75272;SDS011;63869;52.344;16.928;2023-03-23T00:43:12;22.83;;;11.00;;
75272;SDS011;63869;52.344;16.928;2023-03-23T00:45:38;23.83;;;11.13;;
75272;SDS011;63869;52.344;16.928;2023-03-23T00:48:04;25.77;;;10.63;;
75272;SDS011;63869;52.344;16.928;2023-03-23T00:50:30;25.17;;;11.02;;
75272;SDS011;63869;52.344;16.928;2023-03-23T00:52:56;22.23;;;10.20;;
75272;SDS011;63869;52.344;16.928;2023-03-23T00:55:21;24.38;;;10.73;;
75272;SDS011;63869;52.344;16.928;2023-03-23T00:57:47;20.95;;;10.23;;
75272;SDS011;63869;52.344;16.928;2023-03-23T01:00:15;19.77;;;11.00;;
75272;SDS011;63869;52.344;16.928;2023-03-23T01:02:41;23.80;;;10.23;;
75272;SDS011;63869;52.344;16.928;2023-03-23T01:05:09;22.67;;;10.23;;
75272;SDS011;63869;52.344;16.928;2023-03-23T01:07:35;20.42;;;9.68;;
75272;SDS011;63869;52.344;16.928;2023-03-23T01:10:00;22.08;;;9.55;;
75272;SDS011;63869;52.344;16.928;2023-03-23T01:12:26;20.08;;;9.02;;
75272;SDS011;63869;52.344;16.928;2023-03-23T01:14:52;22.83;;;10.13;;
75272;SDS011;63869;52.344;16.928;2023-03-23T01:17:17;21.13;;;10.20;;
75272;SDS011;63869;52.344;16.928;2023-03-23T01:19:43;20.75;;;10.27;;
75272;SDS011;63869;52.344;16.928;2023-03-23T01:22:09;18.90;;;9.20;;
75272;SDS011;63869;52.344;16.928;2023-03-23T01:24:34;22.70;;;9.70;;
75272;SDS011;63869;52.344;16.928;2023-03-23T01:27:00;18.92;;;9.38;;
75272;SDS011;63869;52.344;16.928;2023-03-23T01:29:31;23.48;;;9.80;;
75272;SDS011;63869;52.344;16.928;2023-03-23T01:31:59;17.20;;;9.15;;
75272;SDS011;63869;52.344;16.928;2023-03-23T01:34:25;16.67;;;8.60;;
75272;SDS011;63869;52.344;16.928;2023-03-23T01:36:50;17.00;;;8.85;;
75272;SDS011;63869;52.344;16.928;2023-03-23T01:39:15;19.45;;;9.27;;
75272;SDS011;63869;52.344;16.928;2023-03-23T01:41:41;20.30;;;9.20;;
75272;SDS011;63869;52.344;16.928;2023-03-23T01:46:41;16.13;;;8.13;;
75272;SDS011;63869;52.344;16.928;2023-03-23T01:49:11;18.27;;;7.75;;
75272;SDS011;63869;52.344;16.928;2023-03-23T01:51:41;17.27;;;8.15;;
75272;SDS011;63869;52.344;16.928;2023-03-23T01:54:11;18.02;;;7.85;;
75272;SDS011;63869;52.344;16.928;2023-03-23T01:56:39;15.55;;;7.72;;
75272;SDS011;63869;52.344;16.928;2023-03-23T01:59:10;15.80;;;7.97;;
75272;SDS011;63869;52.344;16.928;2023-03-23T02:01:36;15.07;;;8.13;;
75272;SDS011;63869;52.344;16.928;2023-03-23T02:04:05;15.02;;;7.70;;
75272;SDS011;63869;52.344;16.928;2023-03-23T02:06:30;18.40;;;8.18;;
75272;SDS011;63869;52.344;16.928;2023-03-23T02:08:56;14.68;;;7.82;;
75272;SDS011;63869;52.344;16.928;2023-03-23T02:11:22;14.50;;;8.02;;
75272;SDS011;63869;52.344;16.928;2023-03-23T02:13:48;17.92;;;7.90;;
75272;SDS011;63869;52.344;16.928;2023-03-23T02:24:16;15.93;;;7.60;;
75272;SDS011;63869;52.344;16.928;2023-03-23T02:27:08;13.27;;;6.80;;
75272;SDS011;63869;52.344;16.928;2023-03-23T02:29:49;14.18;;;7.13;;
75272;SDS011;63869;52.344;16.928;2023-03-23T02:32:28;16.73;;;7.25;;
75272;SDS011;63869;52.344;16.928;2023-03-23T02:34:56;15.02;;;7.13;;
75272;SDS011;63869;52.344;16.928;2023-03-23T02:39:58;12.88;;;6.88;;
75272;SDS011;63869;52.344;16.928;2023-03-23T02:42:36;12.50;;;6.38;;
75272;SDS011;63869;52.344;16.928;2023-03-23T02:45:05;14.32;;;6.95;;
75272;SDS011;63869;52.344;16.928;2023-03-23T02:47:33;13.80;;;6.53;;
75272;SDS011;63869;52.344;16.928;2023-03-23T02:50:02;15.82;;;7.05;;
75272;SDS011;63869;52.344;16.928;2023-03-23T02:52:29;14.20;;;6.53;;
75272;SDS011;63869;52.344;16.928;2023-03-23T02:54:57;14.18;;;7.00;;
75272;SDS011;63869;52.344;16.928;2023-03-23T02:57:24;14.05;;;6.80;;
75272;SDS011;63869;52.344;16.928;2023-03-23T02:59:51;13.80;;;6.50;;
75272;SDS011;63869;52.344;16.928;2023-03-23T03:02:23;10.68;;;6.57;;
75272;SDS011;63869;52.344;16.928;2023-03-23T03:15:51;13.20;;;6.47;;
75272;SDS011;63869;52.344;16.928;2023-03-23T03:18:24;12.85;;;6.13;;
75272;SDS011;63869;52.344;16.928;2023-03-23T03:21:12;14.30;;;5.97;;
75272;SDS011;63869;52.344;16.928;2023-03-23T03:23:40;13.52;;;5.82;;
75272;SDS011;63869;52.344;16.928;2023-03-23T03:26:10;12.27;;;5.88;;
75272;SDS011;63869;52.344;16.928;2023-03-23T03:28:37;10.57;;;6.57;;
75272;SDS011;63869;52.344;16.928;2023-03-23T03:31:04;11.15;;;5.95;;
75272;SDS011;63869;52.344;16.928;2023-03-23T03:33:31;10.30;;;5.80;;
75272;SDS011;63869;52.344;16.928;2023-03-23T03:35:59;12.68;;;5.50;;
75272;SDS011;63869;52.344;16.928;2023-03-23T03:38:28;14.50;;;5.93;;
75272;SDS011;63869;52.344;16.928;2023-03-23T03:40:53;10.85;;;5.30;;
75272;SDS011;63869;52.344;16.928;2023-03-23T03:43:20;12.15;;;5.38;;
75272;SDS011;63869;52.344;16.928;2023-03-23T03:45:45;9.85;;;5.53;;
75272;SDS011;63869;52.344;16.928;2023-03-23T03:48:11;9.32;;;5.68;;
75272;SDS011;63869;52.344;16.928;2023-03-23T03:50:37;9.57;;;5.00;;
75272;SDS011;63869;52.344;16.928;2023-03-23T03:53:03;9.55;;;5.55;;
75272;SDS011;63869;52.344;16.928;2023-03-23T03:55:30;9.45;;;5.20;;
75272;SDS011;63869;52.344;16.928;2023-03-23T03:58:00;10.30;;;5.47;;
75272;SDS011;63869;52.344;16.928;2023-03-23T04:00:25;10.75;;;5.45;;
75272;SDS011;63869;52.344;16.928;2023-03-23T04:02:51;8.90;;;5.22;;
75272;SDS011;63869;52.344;16.928;2023-03-23T04:05:18;10.27;;;4.95;;
75272;SDS011;63869;52.344;16.928;2023-03-23T04:07:45;10.25;;;4.97;;
75272;SDS011;63869;52.344;16.928;2023-03-23T04:10:14;10.48;;;4.85;;
75272;SDS011;63869;52.344;16.928;2023-03-23T04:12:44;8.45;;;4.75;;
75272;SDS011;63869;52.344;16.928;2023-03-23T04:15:13;8.77;;;4.63;;
75272;SDS011;63869;52.344;16.928;2023-03-23T04:17:38;8.02;;;5.00;;
75272;SDS011;63869;52.344;16.928;2023-03-23T04:20:05;8.57;;;4.82;;
75272;SDS011;63869;52.344;16.928;2023-03-23T04:22:33;10.80;;;5.38;;
75272;SDS011;63869;52.344;16.928;2023-03-23T04:24:59;8.68;;;4.95;;
75272;SDS011;63869;52.344;16.928;2023-03-23T04:27:27;8.65;;;4.78;;
75272;SDS011;63869;52.344;16.928;2023-03-23T04:29:54;8.57;;;4.70;;
75272;SDS011;63869;52.344;16.928;2023-03-23T04:32:22;10.13;;;5.00;;
75272;SDS011;63869;52.344;16.928;2023-03-23T04:34:50;8.70;;;4.88;;
75272;SDS011;63869;52.344;16.928;2023-03-23T04:37:15;10.23;;;4.95;;
75272;SDS011;63869;52.344;16.928;2023-03-23T04:39:40;11.18;;;5.00;;
75272;SDS011;63869;52.344;16.928;2023-03-23T04:42:07;10.45;;;5.20;;
75272;SDS011;63869;52.344;16.928;2023-03-23T04:44:34;13.40;;;5.25;;
75272;SDS011;63869;52.344;16.928;2023-03-23T04:47:02;9.07;;;5.15;;
75272;SDS011;63869;52.344;16.928;2023-03-23T04:49:28;8.80;;;4.50;;
75272;SDS011;63869;52.344;16.928;2023-03-23T04:51:54;12.02;;;4.43;;
75272;SDS011;63869;52.344;16.928;2023-03-23T04:54:21;8.85;;;4.78;;
75272;SDS011;63869;52.344;16.928;2023-03-23T04:56:47;8.40;;;4.40;;
75272;SDS011;63869;52.344;16.928;2023-03-23T04:59:12;7.25;;;4.57;;
75272;SDS011;63869;52.344;16.928;2023-03-23T05:01:38;7.72;;;4.30;;
75272;SDS011;63869;52.344;16.928;2023-03-23T05:04:05;7.85;;;4.35;;
75272;SDS011;63869;52.344;16.928;2023-03-23T05:06:30;8.93;;;4.53;;
75272;SDS011;63869;52.344;16.928;2023-03-23T05:08:56;8.40;;;4.13;;
75272;SDS011;63869;52.344;16.928;2023-03-23T05:11:21;8.10;;;4.10;;
75272;SDS011;63869;52.344;16.928;2023-03-23T05:13:47;6.82;;;4.05;;
75272;SDS011;63869;52.344;16.928;2023-03-23T05:16:12;8.68;;;3.67;;
75272;SDS011;63869;52.344;16.928;2023-03-23T05:18:37;7.00;;;4.00;;
75272;SDS011;63869;52.344;16.928;2023-03-23T05:21:03;7.07;;;4.00;;
75272;SDS011;63869;52.344;16.928;2023-03-23T05:23:29;8.05;;;3.50;;
75272;SDS011;63869;52.344;16.928;2023-03-23T05:25:56;6.45;;;3.90;;
75272;SDS011;63869;52.344;16.928;2023-03-23T05:28:25;6.78;;;3.85;;
75272;SDS011;63869;52.344;16.928;2023-03-23T05:30:51;5.85;;;3.55;;
75272;SDS011;63869;52.344;16.928;2023-03-23T05:33:17;6.88;;;3.65;;
75272;SDS011;63869;52.344;16.928;2023-03-23T05:35:42;7.40;;;3.40;;
75272;SDS011;63869;52.344;16.928;2023-03-23T05:38:08;10.48;;;4.32;;
75272;SDS011;63869;52.344;16.928;2023-03-23T05:40:33;7.57;;;3.92;;
75272;SDS011;63869;52.344;16.928;2023-03-23T05:42:58;8.73;;;5.05;;
75272;SDS011;63869;52.344;16.928;2023-03-23T05:45:24;7.88;;;3.90;;
75272;SDS011;63869;52.344;16.928;2023-03-23T05:47:49;7.47;;;4.05;;
75272;SDS011;63869;52.344;16.928;2023-03-23T05:50:15;9.32;;;3.97;;
75272;SDS011;63869;52.344;16.928;2023-03-23T05:52:41;8.57;;;3.97;;
75272;SDS011;63869;52.344;16.928;2023-03-23T05:55:07;5.40;;;3.67;;
75272;SDS011;63869;52.344;16.928;2023-03-23T05:57:33;5.25;;;3.30;;
75272;SDS011;63869;52.344;16.928;2023-03-23T05:59:59;17.05;;;8.15;;
75272;SDS011;63869;52.344;16.928;2023-03-23T06:02:25;11.98;;;5.68;;
75272;SDS011;63869;52.344;16.928;2023-03-23T06:04:53;9.38;;;4.03;;
75272;SDS011;63869;52.344;16.928;2023-03-23T06:07:22;6.82;;;4.07;;
75272;SDS011;63869;52.344;16.928;2023-03-23T06:09:49;6.57;;;3.50;;
75272;SDS011;63869;52.344;16.928;2023-03-23T06:12:16;6.35;;;3.63;;
75272;SDS011;63869;52.344;16.928;2023-03-23T06:14:45;7.45;;;3.90;;
75272;SDS011;63869;52.344;16.928;2023-03-23T06:17:11;7.60;;;4.53;;
75272;SDS011;63869;52.344;16.928;2023-03-23T06:19:37;7.68;;;4.10;;
75272;SDS011;63869;52.344;16.928;2023-03-23T06:22:02;6.10;;;3.60;;
75272;SDS011;63869;52.344;16.928;2023-03-23T06:24:28;7.68;;;4.00;;
75272;SDS011;63869;52.344;16.928;2023-03-23T06:26:53;7.07;;;3.50;;
75272;SDS011;63869;52.344;16.928;2023-03-23T06:29:19;8.07;;;3.70;;
75272;SDS011;63869;52.344;16.928;2023-03-23T06:31:45;7.57;;;4.07;;
75272;SDS011;63869;52.344;16.928;2023-03-23T06:34:14;5.25;;;3.50;;
75272;SDS011;63869;52.344;16.928;2023-03-23T06:36:39;8.20;;;4.82;;
75272;SDS011;63869;52.344;16.928;2023-03-23T06:39:05;6.78;;;3.40;;
75272;SDS011;63869;52.344;16.928;2023-03-23T06:41:31;6.45;;;3.60;;
75272;SDS011;63869;52.344;16.928;2023-03-23T06:43:57;5.60;;;2.97;;
75272;SDS011;63869;52.344;16.928;2023-03-23T06:46:23;7.70;;;3.05;;
75272;SDS011;63869;52.344;16.928;2023-03-23T06:48:48;7.63;;;3.47;;
75272;SDS011;63869;52.344;16.928;2023-03-23T06:51:17;4.65;;;2.72;;
75272;SDS011;63869;52.344;16.928;2023-03-23T06:53:43;4.95;;;3.00;;
75272;SDS011;63869;52.344;16.928;2023-03-23T06:56:08;4.53;;;2.63;;
75272;SDS011;63869;52.344;16.928;2023-03-23T06:58:35;8.00;;;2.92;;
75272;SDS011;63869;52.344;16.928;2023-03-23T07:01:02;5.07;;;3.00;;
75272;SDS011;63869;52.344;16.928;2023-03-23T07:03:28;5.00;;;2.50;;
75272;SDS011;63869;52.344;16.928;2023-03-23T07:05:54;7.07;;;3.03;;
75272;SDS011;63869;52.344;16.928;2023-03-23T07:08:20;5.35;;;2.90;;
75272;SDS011;63869;52.344;16.928;2023-03-23T07:10:46;5.70;;;2.95;;
75272;SDS011;63869;52.344;16.928;2023-03-23T07:13:12;6.28;;;2.63;;
75272;SDS011;63869;52.344;16.928;2023-03-23T07:15:38;4.15;;;2.72;;
75272;SDS011;63869;52.344;16.928;2023-03-23T07:18:04;4.72;;;2.70;;
75272;SDS011;63869;52.344;16.928;2023-03-23T07:20:30;7.57;;;2.40;;
75272;SDS011;63869;52.344;16.928;2023-03-23T07:22:56;5.45;;;2.55;;
75272;SDS011;63869;52.344;16.928;2023-03-23T07:25:21;6.15;;;2.65;;
75272;SDS011;63869;52.344;16.928;2023-03-23T07:27:47;5.45;;;2.30;;
75272;SDS011;63869;52.344;16.928;2023-03-23T07:30:13;4.68;;;2.60;;
75272;SDS011;63869;52.344;16.928;2023-03-23T07:32:39;6.93;;;2.55;;
75272;SDS011;63869;52.344;16.928;2023-03-23T07:35:05;3.20;;;2.30;;
75272;SDS011;63869;52.344;16.928;2023-03-23T07:37:32;4.05;;;2.38;;
75272;SDS011;63869;52.344;16.928;2023-03-23T07:39:58;5.32;;;2.63;;
75272;SDS011;63869;52.344;16.928;2023-03-23T07:42:23;3.78;;;2.35;;
75272;SDS011;63869;52.344;16.928;2023-03-23T07:44:48;3.95;;;2.30;;
75272;SDS011;63869;52.344;16.928;2023-03-23T07:47:14;6.10;;;2.38;;
75272;SDS011;63869;52.344;16.928;2023-03-23T07:49:39;5.60;;;2.90;;
75272;SDS011;63869;52.344;16.928;2023-03-23T07:52:05;7.65;;;3.42;;
75272;SDS011;63869;52.344;16.928;2023-03-23T07:54:30;3.60;;;2.28;;
75272;SDS011;63869;52.344;16.928;2023-03-23T07:56:56;4.70;;;2.55;;
75272;SDS011;63869;52.344;16.928;2023-03-23T07:59:21;4.65;;;2.60;;
75272;SDS011;63869;52.344;16.928;2023-03-23T08:01:47;5.28;;;2.75;;
75272;SDS011;63869;52.344;16.928;2023-03-23T08:04:12;7.80;;;2.88;;
75272;SDS011;63869;52.344;16.928;2023-03-23T08:06:38;6.80;;;2.40;;
75272;SDS011;63869;52.344;16.928;2023-03-23T08:09:04;3.75;;;2.35;;
75272;SDS011;63869;52.344;16.928;2023-03-23T08:11:33;3.47;;;2.30;;
75272;SDS011;63869;52.344;16.928;2023-03-23T08:13:59;4.10;;;2.40;;
75272;SDS011;63869;52.344;16.928;2023-03-23T08:16:25;4.57;;;3.03;;
75272;SDS011;63869;52.344;16.928;2023-03-23T08:18:50;4.80;;;2.45;;
75272;SDS011;63869;52.344;16.928;2023-03-23T08:21:15;6.72;;;2.53;;
75272;SDS011;63869;52.344;16.928;2023-03-23T08:23:41;6.35;;;2.75;;
75272;SDS011;63869;52.344;16.928;2023-03-23T08:26:07;4.75;;;2.45;;
75272;SDS011;63869;52.344;16.928;2023-03-23T08:28:34;4.93;;;2.67;;
75272;SDS011;63869;52.344;16.928;2023-03-23T08:31:00;5.47;;;2.60;;
75272;SDS011;63869;52.344;16.928;2023-03-23T08:33:31;6.88;;;2.42;;
75272;SDS011;63869;52.344;16.928;2023-03-23T08:35:58;9.05;;;2.83;;
75272;SDS011;63869;52.344;16.928;2023-03-23T08:38:24;4.60;;;2.67;;
75272;SDS011;63869;52.344;16.928;2023-03-23T08:40:50;5.53;;;2.58;;
75272;SDS011;63869;52.344;16.928;2023-03-23T08:43:16;4.20;;;2.53;;
75272;SDS011;63869;52.344;16.928;2023-03-23T08:45:42;4.35;;;2.17;;
75272;SDS011;63869;52.344;16.928;2023-03-23T08:48:07;3.65;;;2.33;;
75272;SDS011;63869;52.344;16.928;2023-03-23T08:50:33;5.05;;;2.10;;
75272;SDS011;63869;52.344;16.928;2023-03-23T08:53:00;7.88;;;3.05;;
75272;SDS011;63869;52.344;16.928;2023-03-23T08:55:28;5.90;;;2.70;;
75272;SDS011;63869;52.344;16.928;2023-03-23T08:57:53;6.07;;;2.45;;
75272;SDS011;63869;52.344;16.928;2023-03-23T09:00:20;6.88;;;2.60;;
75272;SDS011;63869;52.344;16.928;2023-03-23T09:02:50;5.63;;;2.40;;
75272;SDS011;63869;52.344;16.928;2023-03-23T09:05:18;6.78;;;2.53;;
75272;SDS011;63869;52.344;16.928;2023-03-23T09:07:49;5.53;;;2.90;;
75272;SDS011;63869;52.344;16.928;2023-03-23T09:10:15;7.60;;;2.72;;
75272;SDS011;63869;52.344;16.928;2023-03-23T09:12:45;7.00;;;3.00;;
75272;SDS011;63869;52.344;16.928;2023-03-23T09:15:12;4.65;;;2.70;;
75272;SDS011;63869;52.344;16.928;2023-03-23T09:17:47;5.80;;;2.70;;
75272;SDS011;63869;52.344;16.928;2023-03-23T09:20:14;4.95;;;2.17;;
75272;SDS011;63869;52.344;16.928;2023-03-23T09:22:42;5.57;;;2.70;;
75272;SDS011;63869;52.344;16.928;2023-03-23T09:25:10;3.60;;;2.20;;
75272;SDS011;63869;52.344;16.928;2023-03-23T09:27:37;5.93;;;2.90;;
75272;SDS011;63869;52.344;16.928;2023-03-23T09:30:08;6.47;;;2.80;;
75272;SDS011;63869;52.344;16.928;2023-03-23T09:32:35;6.68;;;3.42;;
75272;SDS011;63869;52.344;16.928;2023-03-23T09:35:02;3.97;;;2.45;;
75272;SDS011;63869;52.344;16.928;2023-03-23T09:37:29;4.40;;;2.20;;
75272;SDS011;63869;52.344;16.928;2023-03-23T09:39:55;3.78;;;2.40;;
75272;SDS011;63869;52.344;16.928;2023-03-23T09:50:41;5.60;;;3.47;;
75272;SDS011;63869;52.344;16.928;2023-03-23T09:53:12;5.85;;;3.10;;
75272;SDS011;63869;52.344;16.928;2023-03-23T09:55:42;4.53;;;2.38;;
75272;SDS011;63869;52.344;16.928;2023-03-23T09:58:22;4.05;;;2.70;;
75272;SDS011;63869;52.344;16.928;2023-03-23T10:00:57;5.55;;;2.40;;
75272;SDS011;63869;52.344;16.928;2023-03-23T10:03:30;4.82;;;2.60;;
75272;SDS011;63869;52.344;16.928;2023-03-23T10:06:02;6.70;;;3.80;;
75272;SDS011;63869;52.344;16.928;2023-03-23T10:08:29;6.47;;;4.03;;
75272;SDS011;63869;52.344;16.928;2023-03-23T10:13:30;7.03;;;4.63;;
75272;SDS011;63869;52.344;16.928;2023-03-23T10:15:57;12.35;;;5.32;;
75272;SDS011;63869;52.344;16.928;2023-03-23T10:21:01;9.00;;;3.40;;
75272;SDS011;63869;52.344;16.928;2023-03-23T10:23:37;9.80;;;5.25;;
75272;SDS011;63869;52.344;16.928;2023-03-23T10:32:16;5.03;;;2.85;;
75272;SDS011;63869;52.344;16.928;2023-03-23T10:34:55;4.72;;;3.38;;
75272;SDS011;63869;52.344;16.928;2023-03-23T10:37:26;5.30;;;3.80;;
75272;SDS011;63869;52.344;16.928;2023-03-23T10:39:54;7.03;;;3.45;;
75272;SDS011;63869;52.344;16.928;2023-03-23T10:42:27;7.32;;;4.72;;
75272;SDS011;63869;52.344;16.928;2023-03-23T10:44:55;5.60;;;3.03;;
75272;SDS011;63869;52.344;16.928;2023-03-23T10:47:21;8.85;;;4.60;;
75272;SDS011;63869;52.344;16.928;2023-03-23T10:49:58;7.65;;;4.30;;
75272;SDS011;63869;52.344;16.928;2023-03-23T10:52:37;5.05;;;3.00;;
75272;SDS011;63869;52.344;16.928;2023-03-23T10:55:07;10.82;;;6.60;;
75272;SDS011;63869;52.344;16.928;2023-03-23T11:02:41;5.28;;;2.60;;
75272;SDS011;63869;52.344;16.928;2023-03-23T11:05:52;7.07;;;4.05;;
75272;SDS011;63869;52.344;16.928;2023-03-23T11:08:14;3.45;;;2.47;;
75272;SDS011;63869;52.344;16.928;2023-03-23T11:13:23;4.80;;;2.47;;
75272;SDS011;63869;52.344;16.928;2023-03-23T11:15:54;3.08;;;2.20;;
75272;SDS011;63869;52.344;16.928;2023-03-23T11:18:27;4.82;;;2.17;;
75272;SDS011;63869;52.344;16.928;2023-03-23T11:21:01;7.32;;;3.60;;
75272;SDS011;63869;52.344;16.928;2023-03-23T11:23:29;5.95;;;3.38;;
75272;SDS011;63869;52.344;16.928;2023-03-23T11:28:25;6.10;;;3.65;;
75272;SDS011;63869;52.344;16.928;2023-03-23T11:30:57;2.60;;;1.80;;
75272;SDS011;63869;52.344;16.928;2023-03-23T11:33:24;1.77;;;1.63;;
75272;SDS011;63869;52.344;16.928;2023-03-23T11:35:50;5.28;;;2.45;;
75272;SDS011;63869;52.344;16.928;2023-03-23T11:38:19;2.97;;;1.98;;
75272;SDS011;63869;52.344;16.928;2023-03-23T11:40:50;2.05;;;1.60;;
75272;SDS011;63869;52.344;16.928;2023-03-23T11:43:22;3.30;;;1.85;;
75272;SDS011;63869;52.344;16.928;2023-03-23T11:46:04;2.75;;;1.77;;
75272;SDS011;63869;52.344;16.928;2023-03-23T11:51:17;5.20;;;2.20;;
75272;SDS011;63869;52.344;16.928;2023-03-23T11:56:36;3.45;;;1.88;;
75272;SDS011;63869;52.344;16.928;2023-03-23T11:59:09;6.13;;;1.95;;
75272;SDS011;63869;52.344;16.928;2023-03-23T12:07:33;2.20;;;1.70;;
75272;SDS011;63869;52.344;16.928;2023-03-23T12:10:24;2.97;;;1.75;;
75272;SDS011;63869;52.344;16.928;2023-03-23T12:15:41;3.00;;;2.00;;
75272;SDS011;63869;52.344;16.928;2023-03-23T12:18:19;5.32;;;2.75;;
75272;SDS011;63869;52.344;16.928;2023-03-23T12:23:54;3.95;;;1.90;;
75272;SDS011;63869;52.344;16.928;2023-03-23T12:29:39;5.55;;;2.47;;
75272;SDS011;63869;52.344;16.928;2023-03-23T12:31:49;4.40;;;1.98;;
75272;SDS011;63869;52.344;16.928;2023-03-23T12:45:19;4.60;;;2.75;;
75272;SDS011;63869;52.344;16.928;2023-03-23T12:50:29;4.85;;;3.00;;
75272;SDS011;63869;52.344;16.928;2023-03-23T12:53:02;6.70;;;2.95;;
75272;SDS011;63869;52.344;16.928;2023-03-23T12:55:36;4.22;;;2.53;;
75272;SDS011;63869;52.344;16.928;2023-03-23T12:58:07;8.77;;;2.58;;
75272;SDS011;63869;52.344;16.928;2023-03-23T13:03:33;4.82;;;2.90;;
75272;SDS011;63869;52.344;16.928;2023-03-23T13:08:51;9.35;;;4.68;;
75272;SDS011;63869;52.344;16.928;2023-03-23T13:11:24;8.38;;;4.50;;
75272;SDS011;63869;52.344;16.928;2023-03-23T13:13:55;3.38;;;2.10;;
75272;SDS011;63869;52.344;16.928;2023-03-23T13:19:13;3.22;;;2.20;;
75272;SDS011;63869;52.344;16.928;2023-03-23T13:24:29;4.97;;;2.40;;
75272;SDS011;63869;52.344;16.928;2023-03-23T13:26:58;6.00;;;3.47;;
75272;SDS011;63869;52.344;16.928;2023-03-23T13:29:26;11.25;;;7.63;;
75272;SDS011;63869;52.344;16.928;2023-03-23T13:31:52;6.88;;;5.00;;
75272;SDS011;63869;52.344;16.928;2023-03-23T13:34:31;6.22;;;3.35;;
75272;SDS011;63869;52.344;16.928;2023-03-23T13:39:32;4.75;;;2.38;;
75272;SDS011;63869;52.344;16.928;2023-03-23T13:42:01;3.05;;;2.05;;
75272;SDS011;63869;52.344;16.928;2023-03-23T13:44:38;5.82;;;3.03;;
75272;SDS011;63869;52.344;16.928;2023-03-23T13:54:51;4.65;;;2.60;;
75272;SDS011;63869;52.344;16.928;2023-03-23T13:57:35;4.45;;;2.58;;
75272;SDS011;63869;52.344;16.928;2023-03-23T14:00:11;5.68;;;2.90;;
75272;SDS011;63869;52.344;16.928;2023-03-23T14:03:01;3.92;;;2.20;;
75272;SDS011;63869;52.344;16.928;2023-03-23T14:14:05;3.20;;;2.20;;
75272;SDS011;63869;52.344;16.928;2023-03-23T14:16:41;4.00;;;2.13;;
75272;SDS011;63869;52.344;16.928;2023-03-23T14:19:21;5.53;;;2.30;;
75272;SDS011;63869;52.344;16.928;2023-03-23T14:21:56;3.13;;;2.05;;
75272;SDS011;63869;52.344;16.928;2023-03-23T14:27:09;6.38;;;2.92;;
75272;SDS011;63869;52.344;16.928;2023-03-23T14:29:37;4.13;;;2.65;;
75272;SDS011;63869;52.344;16.928;2023-03-23T14:32:05;5.28;;;2.65;;
75272;SDS011;63869;52.344;16.928;2023-03-23T14:34:33;3.10;;;2.00;;
75272;SDS011;63869;52.344;16.928;2023-03-23T14:36:59;8.95;;;3.95;;
75272;SDS011;63869;52.344;16.928;2023-03-23T14:39:26;11.63;;;5.25;;
75272;SDS011;63869;52.344;16.928;2023-03-23T14:41:55;5.20;;;3.03;;
75272;SDS011;63869;52.344;16.928;2023-03-23T14:44:23;9.20;;;3.25;;
75272;SDS011;63869;52.344;16.928;2023-03-23T14:46:51;9.48;;;4.43;;
75272;SDS011;63869;52.344;16.928;2023-03-23T14:49:19;7.18;;;3.17;;
75272;SDS011;63869;52.344;16.928;2023-03-23T14:51:53;3.75;;;2.50;;
75272;SDS011;63869;52.344;16.928;2023-03-23T14:54:24;9.60;;;3.58;;
75272;SDS011;63869;52.344;16.928;2023-03-23T14:56:52;6.85;;;3.10;;
75272;SDS011;63869;52.344;16.928;2023-03-23T14:59:18;4.22;;;2.90;;
75272;SDS011;63869;52.344;16.928;2023-03-23T15:01:43;7.90;;;5.10;;
75272;SDS011;63869;52.344;16.928;2023-03-23T15:04:19;5.35;;;2.75;;
75272;SDS011;63869;52.344;16.928;2023-03-23T15:06:56;6.00;;;3.30;;
75272;SDS011;63869;52.344;16.928;2023-03-23T15:09:25;8.05;;;3.53;;
75272;SDS011;63869;52.344;16.928;2023-03-23T15:11:55;14.18;;;6.63;;
75272;SDS011;63869;52.344;16.928;2023-03-23T15:14:28;11.73;;;5.97;;
75272;SDS011;63869;52.344;16.928;2023-03-23T15:16:57;75.43;;;17.63;;
75272;SDS011;63869;52.344;16.928;2023-03-23T15:19:27;64.32;;;13.82;;
75272;SDS011;63869;52.344;16.928;2023-03-23T15:21:57;10.32;;;4.80;;
75272;SDS011;63869;52.344;16.928;2023-03-23T15:24:32;13.50;;;6.47;;
75272;SDS011;63869;52.344;16.928;2023-03-23T15:27:18;27.15;;;9.93;;
75272;SDS011;63869;52.344;16.928;2023-03-23T15:32:26;7.43;;;4.20;;
75272;SDS011;63869;52.344;16.928;2023-03-23T15:34:54;5.90;;;3.58;;
75272;SDS011;63869;52.344;16.928;2023-03-23T15:37:21;10.13;;;4.10;;
75272;SDS011;63869;52.344;16.928;2023-03-23T15:39:51;12.95;;;7.43;;
75272;SDS011;63869;52.344;16.928;2023-03-23T15:42:30;13.45;;;5.80;;
75272;SDS011;63869;52.344;16.928;2023-03-23T15:50:13;6.13;;;3.70;;
75272;SDS011;63869;52.344;16.928;2023-03-23T15:52:56;8.57;;;4.93;;
75272;SDS011;63869;52.344;16.928;2023-03-23T15:55:35;10.85;;;5.38;;
75272;SDS011;63869;52.344;16.928;2023-03-23T15:58:10;16.15;;;7.10;;
75272;SDS011;63869;52.344;16.928;2023-03-23T16:00:37;17.50;;;6.60;;
75272;SDS011;63869;52.344;16.928;2023-03-23T16:03:04;19.73;;;6.47;;
75272;SDS011;63869;52.344;16.928;2023-03-23T16:05:33;12.65;;;4.93;;
75272;SDS011;63869;52.344;16.928;2023-03-23T16:08:00;8.65;;;4.25;;
75272;SDS011;63869;52.344;16.928;2023-03-23T16:10:26;7.25;;;3.53;;
75272;SDS011;63869;52.344;16.928;2023-03-23T16:12:53;11.05;;;4.93;;
75272;SDS011;63869;52.344;16.928;2023-03-23T16:15:19;7.38;;;4.38;;
75272;SDS011;63869;52.344;16.928;2023-03-23T16:17:46;9.77;;;4.95;;
75272;SDS011;63869;52.344;16.928;2023-03-23T16:20:15;9.40;;;4.70;;
75272;SDS011;63869;52.344;16.928;2023-03-23T16:22:43;13.95;;;5.78;;
75272;SDS011;63869;52.344;16.928;2023-03-23T16:25:09;11.32;;;5.57;;
75272;SDS011;63869;52.344;16.928;2023-03-23T16:27:36;12.13;;;6.30;;
75272;SDS011;63869;52.344;16.928;2023-03-23T16:30:13;28.88;;;10.38;;
75272;SDS011;63869;52.344;16.928;2023-03-23T16:32:43;13.45;;;6.53;;
75272;SDS011;63869;52.344;16.928;2023-03-23T16:35:09;22.40;;;8.55;;
75272;SDS011;63869;52.344;16.928;2023-03-23T16:37:35;17.23;;;7.97;;
75272;SDS011;63869;52.344;16.928;2023-03-23T16:40:00;12.23;;;5.70;;
75272;SDS011;63869;52.344;16.928;2023-03-23T16:42:27;13.68;;;7.20;;
75272;SDS011;63869;52.344;16.928;2023-03-23T16:44:52;9.07;;;4.55;;
75272;SDS011;63869;52.344;16.928;2023-03-23T16:47:19;7.70;;;4.00;;